ベレン の空港の天気 - METARとTAF

ベレン国際空港 ( SBBE / BEL ) - ブラジル パラー州ベレン
飛行場実況気象(Metar)
観測時間07/17 05:00 AMT (07/17 09:00 UTC)
風向・風速東北東 3m/s
視程6000m
天気現象
なし
気温24℃
湿度94%
気圧1014hPa
METARSBBE 170900Z 07006KT 6000 NSC 24/23 Q1014
過去の天気等 Google飛行場航空写真 Wunderground天気予報

過去48時間のMETAR

飛行場予報(TAF)
発表時間: 7/17 00:00 AMT (7/17 04:00 UTC)
予報対象時間: 17日2時 AMT ~ 18日2時 AMT
風向・風速北東 1m/s
視程10km以上
なし
17日7時 AMT ~ 17日9時 AMT に徐々に
視程10km以上
全天の4割程度の雲 雲底高度 610m
17日11時 AMT ~ 17日13時 AMT に徐々に
風向・風速北 3m/s
全天の8割程度の雲 雲底高度 1220m
17日15時 AMT ~ 17日17時 AMT に徐々に
風向・風速南南東 3m/s
17日19時 AMT ~ 17日21時 AMT に徐々に
風向・風速東 2m/s
視程10km以上
なし
TAF SBBE 170400Z 1706/1806 04002KT CAVOK TN23/1706Z TX31/1717Z
BECMG 1711/1713 9999 SCT020
BECMG 1715/1717 36005KT BKN040
BECMG 1719/1721 15005KT 5 000 TSRA BKN013 FEW020CB
BECMG 1723/1801 09003KT CAVOK RMK PDY